createdAt,value
2019-01-26T00:00:08.077Z,18.80
2019-01-26T00:02:36.393Z,19.43
2019-01-26T00:05:08.831Z,18.83
2019-01-26T00:07:37.560Z,19.17
2019-01-26T00:10:08.163Z,19.17
2019-01-26T00:12:36.561Z,19.60
2019-01-26T00:15:07.739Z,18.97
2019-01-26T00:17:36.025Z,19.80
2019-01-26T00:20:06.592Z,18.83
2019-01-26T00:22:34.883Z,18.37
2019-01-26T00:25:03.364Z,20.63
2019-01-26T00:27:31.651Z,18.13
2019-01-26T00:30:00.257Z,19.33
2019-01-26T00:32:29.002Z,19.63
2019-01-26T00:34:57.497Z,18.87
2019-01-26T00:37:25.781Z,17.83
2019-01-26T00:39:54.066Z,19.10
2019-01-26T00:42:22.402Z,19.07
2019-01-26T00:44:52.328Z,20.20
2019-01-26T00:47:20.587Z,18.87
2019-01-26T00:49:48.848Z,19.47
2019-01-26T00:52:17.129Z,20.03
2019-01-26T00:54:45.389Z,19.63
2019-01-26T00:57:13.648Z,19.43
2019-01-26T00:59:41.942Z,20.23
2019-01-26T01:02:10.211Z,20.97
2019-01-26T01:04:38.539Z,21.30
2019-01-26T01:07:06.824Z,21.70
2019-01-26T01:09:35.180Z,22.93
2019-01-26T01:12:03.458Z,22.03
2019-01-26T01:14:31.730Z,22.57
2019-01-26T01:16:59.989Z,22.83
2019-01-26T01:19:28.270Z,24.53
2019-01-26T01:21:56.620Z,23.13
2019-01-26T01:24:24.896Z,22.07
2019-01-26T01:26:53.179Z,23.43
2019-01-26T01:29:21.471Z,23.77
2019-01-26T01:31:49.752Z,25.63
2019-01-26T01:34:18.027Z,26.80
2019-01-26T01:36:46.273Z,26.73
2019-01-26T01:39:14.545Z,26.23
2019-01-26T01:41:42.807Z,26.00
2019-01-26T01:44:11.080Z,27.70
2019-01-26T01:46:42.955Z,26.53
2019-01-26T01:49:09.359Z,25.97
2019-01-26T01:51:37.628Z,27.87
2019-01-26T01:54:05.908Z,27.10
2019-01-26T01:56:34.174Z,26.67
2019-01-26T01:59:02.446Z,27.93
2019-01-26T02:01:30.761Z,25.90
2019-01-26T02:03:59.049Z,26.10
2019-01-26T02:06:27.365Z,28.10
2019-01-26T02:08:55.636Z,28.07
2019-01-26T02:11:23.900Z,28.60
2019-01-26T02:13:52.178Z,27.23
2019-01-26T02:16:20.470Z,27.63
2019-01-26T02:18:48.796Z,28.33
2019-01-26T02:21:17.060Z,27.43
2019-01-26T02:23:45.318Z,28.10
2019-01-26T02:26:13.626Z,27.83
2019-01-26T02:28:41.871Z,27.50
2019-01-26T02:31:10.146Z,27.53
2019-01-26T02:33:38.422Z,28.03
2019-01-26T02:36:06.693Z,26.07
2019-01-26T02:38:34.953Z,26.93
2019-01-26T02:41:03.249Z,27.53
2019-01-26T02:43:31.522Z,26.63
2019-01-26T02:45:59.790Z,26.87
2019-01-26T02:48:28.056Z,27.30
2019-01-26T02:50:56.325Z,28.17
2019-01-26T02:53:24.617Z,26.00
2019-01-26T02:55:52.876Z,28.20
2019-01-26T02:58:21.146Z,26.93
2019-01-26T03:00:49.449Z,29.60
2019-01-26T03:03:17.720Z,28.10
2019-01-26T03:05:46.001Z,29.00
2019-01-26T03:08:14.295Z,27.53
2019-01-26T03:10:42.551Z,31.33
2019-01-26T03:13:10.851Z,28.67
2019-01-26T03:15:39.167Z,28.43
2019-01-26T03:18:07.433Z,29.40
2019-01-26T03:20:35.728Z,29.03
2019-01-26T03:23:04.005Z,29.00
2019-01-26T03:25:32.301Z,29.03
2019-01-26T03:28:00.585Z,31.20
2019-01-26T03:30:28.913Z,30.60
2019-01-26T03:32:57.187Z,29.90
2019-01-26T03:35:25.454Z,29.13
2019-01-26T03:37:53.751Z,28.17
2019-01-26T03:40:22.624Z,29.07
2019-01-26T03:42:50.982Z,28.10
2019-01-26T03:45:19.257Z,29.33
2019-01-26T03:47:47.541Z,28.47
2019-01-26T03:50:16.313Z,27.97
2019-01-26T03:52:44.591Z,29.80
2019-01-26T03:55:15.757Z,28.67
2019-01-26T03:57:44.053Z,28.77
2019-01-26T04:00:21.423Z,29.83
2019-01-26T04:02:49.685Z,26.83
2019-01-26T04:05:18.046Z,28.17
2019-01-26T04:07:46.320Z,27.30
2019-01-26T04:10:15.617Z,26.93
2019-01-26T04:12:44.028Z,28.33
2019-01-26T04:15:17.392Z,28.27
2019-01-26T04:17:45.721Z,27.63
2019-01-26T04:20:21.618Z,27.03
2019-01-26T04:22:49.921Z,27.03
2019-01-26T04:25:18.181Z,26.50
2019-01-26T04:27:46.517Z,27.67
2019-01-26T04:30:17.102Z,27.40
2019-01-26T04:32:45.360Z,25.57
2019-01-26T04:35:13.627Z,26.43
2019-01-26T04:37:41.902Z,26.47
2019-01-26T04:40:12.531Z,26.13
2019-01-26T04:42:40.832Z,26.07
2019-01-26T04:45:14.018Z,25.60
2019-01-26T04:47:42.292Z,24.23
2019-01-26T04:50:13.296Z,23.40
2019-01-26T04:52:41.556Z,23.97
2019-01-26T04:55:09.831Z,25.80
2019-01-26T04:57:38.118Z,24.20
2019-01-26T05:00:18.692Z,24.20
2019-01-26T05:02:46.991Z,22.97
2019-01-26T05:05:15.315Z,23.10
2019-01-26T05:07:43.575Z,23.97
2019-01-26T05:10:17.360Z,24.13
2019-01-26T05:12:45.704Z,23.13
2019-01-26T05:15:15.006Z,22.03
2019-01-26T05:17:43.359Z,23.60
2019-01-26T05:20:22.960Z,20.80
2019-01-26T05:22:51.396Z,21.67
2019-01-26T05:25:19.761Z,21.47
2019-01-26T05:27:48.028Z,21.60
2019-01-26T05:30:21.810Z,20.30
2019-01-26T05:32:50.062Z,21.63
2019-01-26T05:35:18.335Z,20.53
2019-01-26T05:37:46.639Z,21.07
2019-01-26T05:40:16.849Z,21.23
2019-01-26T05:42:45.191Z,19.97
2019-01-26T05:45:18.593Z,20.73
2019-01-26T05:47:48.594Z,20.53
2019-01-26T05:50:22.379Z,23.63
2019-01-26T05:52:50.682Z,20.93
2019-01-26T05:55:18.951Z,20.27
2019-01-26T05:57:47.221Z,21.27
2019-01-26T06:00:22.928Z,22.53
2019-01-26T06:02:51.343Z,20.63
2019-01-26T06:05:19.640Z,20.30
2019-01-26T06:07:47.919Z,21.87
2019-01-26T06:10:16.274Z,21.50
2019-01-26T06:12:44.513Z,22.10
2019-01-26T06:15:12.854Z,21.83
2019-01-26T06:17:41.162Z,22.20
2019-01-26T06:20:12.666Z,22.93
2019-01-26T06:22:40.973Z,22.03
2019-01-26T06:25:12.421Z,22.53
2019-01-26T06:27:40.701Z,21.10
2019-01-26T06:30:15.136Z,22.20
2019-01-26T06:32:43.412Z,22.93
2019-01-26T06:35:13.811Z,22.70
2019-01-26T06:37:41.844Z,22.00
2019-01-26T06:40:12.649Z,22.00
2019-01-26T06:42:40.918Z,23.23
2019-01-26T06:45:11.187Z,22.50
2019-01-26T06:47:39.502Z,21.03
2019-01-26T06:50:16.758Z,21.17
2019-01-26T06:52:45.055Z,21.87
2019-01-26T06:55:13.321Z,21.47
2019-01-26T06:57:41.603Z,20.43
2019-01-26T07:00:15.531Z,21.70
2019-01-26T07:02:43.819Z,21.93
2019-01-26T07:05:16.535Z,21.63
2019-01-26T07:07:44.793Z,23.07
2019-01-26T07:10:13.079Z,21.10
2019-01-26T07:12:41.466Z,21.60
2019-01-26T07:15:11.277Z,22.47
2019-01-26T07:17:39.575Z,21.40
2019-01-26T07:20:11.288Z,22.80
2019-01-26T07:22:39.590Z,22.37
2019-01-26T07:25:08.573Z,21.13
2019-01-26T07:27:37.091Z,21.47
2019-01-26T07:30:14.730Z,20.77
2019-01-26T07:32:43.127Z,21.67
2019-01-26T07:35:11.393Z,20.33
2019-01-26T07:37:39.756Z,20.80
2019-01-26T07:40:14.083Z,21.37
2019-01-26T07:42:42.384Z,21.33
2019-01-26T07:45:13.164Z,19.37
2019-01-26T07:47:41.512Z,21.30
2019-01-26T07:50:18.318Z,20.63
2019-01-26T07:52:46.569Z,23.00
2019-01-26T07:55:16.474Z,20.97
2019-01-26T07:57:44.794Z,21.87
2019-01-26T08:00:16.362Z,21.43
2019-01-26T08:02:44.610Z,21.80
2019-01-26T08:05:15.673Z,20.13
2019-01-26T08:07:43.953Z,21.80
2019-01-26T08:10:14.767Z,20.03
2019-01-26T08:12:43.056Z,22.23
2019-01-26T08:15:14.386Z,21.63
2019-01-26T08:17:42.651Z,22.20
2019-01-26T08:20:16.482Z,25.07
2019-01-26T08:22:44.746Z,23.93
2019-01-26T08:25:16.078Z,24.63
2019-01-26T08:27:44.338Z,25.10
2019-01-26T08:30:18.613Z,22.83
2019-01-26T08:32:46.876Z,22.87
2019-01-26T08:35:18.081Z,22.33
2019-01-26T08:37:46.339Z,22.63
2019-01-26T08:40:17.310Z,22.10
2019-01-26T08:42:45.573Z,24.10
2019-01-26T08:45:14.772Z,23.47
2019-01-26T08:47:43.269Z,22.93
2019-01-26T08:50:14.459Z,22.30
2019-01-26T08:52:42.785Z,22.27
2019-01-26T08:55:18.059Z,24.60
2019-01-26T08:57:42.076Z,21.40
2019-01-26T09:00:18.096Z,24.67
2019-01-26T09:02:54.500Z,22.40
2019-01-26T09:05:30.477Z,23.17
2019-01-26T09:07:58.776Z,23.50
2019-01-26T09:10:27.037Z,23.40
2019-01-26T09:12:55.296Z,22.63
2019-01-26T09:15:24.135Z,21.83
2019-01-26T09:17:52.413Z,21.90
2019-01-26T09:20:20.677Z,21.70
2019-01-26T09:22:48.942Z,23.03
2019-01-26T09:25:17.228Z,24.03
2019-01-26T09:27:45.751Z,25.13
2019-01-26T09:30:17.278Z,24.77
2019-01-26T09:32:45.545Z,24.37
2019-01-26T09:35:13.824Z,20.87
2019-01-26T09:37:42.084Z,21.83
2019-01-26T09:40:13.779Z,20.73
2019-01-26T09:42:42.105Z,20.83
2019-01-26T09:45:14.339Z,20.37
2019-01-26T09:47:42.629Z,20.20
2019-01-26T09:50:11.324Z,19.80
2019-01-26T09:52:39.590Z,21.30
2019-01-26T09:55:10.678Z,19.33
2019-01-26T09:57:38.946Z,18.73
2019-01-26T10:00:16.145Z,18.70
2019-01-26T10:02:44.396Z,19.37
2019-01-26T10:05:12.669Z,18.33
2019-01-26T10:07:40.940Z,18.73
2019-01-26T10:10:14.072Z,17.70
2019-01-26T10:12:51.614Z,18.83
2019-01-26T10:15:34.838Z,17.83
2019-01-26T10:18:05.324Z,17.27
2019-01-26T10:21:01.677Z,16.93
2019-01-26T10:23:37.843Z,17.90
2019-01-26T10:26:10.731Z,18.13
2019-01-26T10:28:39.560Z,17.77
2019-01-26T10:31:17.849Z,16.80
2019-01-26T10:36:55.359Z,17.60
2019-01-26T10:39:26.681Z,17.03
2019-01-26T10:42:00.911Z,16.47
2019-01-26T10:44:32.186Z,15.23
2019-01-26T10:47:01.978Z,15.90
2019-01-26T10:49:33.216Z,16.63
2019-01-26T10:52:05.810Z,17.00
2019-01-26T10:54:39.684Z,16.37
2019-01-26T10:57:09.185Z,17.30
2019-01-26T10:59:39.037Z,15.80
2019-01-26T11:02:10.181Z,17.20
2019-01-26T11:04:38.516Z,17.93
2019-01-26T11:07:06.771Z,18.83
2019-01-26T11:09:35.035Z,17.20
2019-01-26T11:12:03.303Z,17.90
2019-01-26T11:14:31.556Z,15.93
2019-01-26T11:17:05.581Z,15.37
2019-01-26T11:19:33.847Z,15.97
2019-01-26T11:22:02.107Z,16.20
2019-01-26T11:24:30.509Z,15.50
2019-01-26T11:27:00.306Z,18.47
2019-01-26T11:29:28.620Z,19.87
2019-01-26T11:31:56.903Z,17.07
2019-01-26T11:34:25.192Z,15.20
2019-01-26T11:36:53.762Z,18.47
2019-01-26T11:39:22.465Z,16.73
2019-01-26T11:41:50.741Z,15.30
2019-01-26T11:44:19.004Z,20.77
2019-01-26T11:46:47.755Z,15.37
2019-01-26T11:49:16.101Z,17.47
2019-01-26T11:51:44.752Z,15.90
2019-01-26T11:54:13.033Z,16.17
2019-01-26T11:56:43.007Z,19.70
2019-01-26T11:59:11.270Z,19.33
2019-01-26T12:01:41.354Z,16.87
2019-01-26T12:04:14.318Z,17.83
2019-01-26T12:06:44.226Z,18.33
2019-01-26T12:09:15.508Z,16.80
2019-01-26T12:11:44.156Z,17.47
2019-01-26T12:14:12.769Z,17.67
2019-01-26T12:16:41.013Z,14.73
2019-01-26T12:19:09.357Z,15.10
2019-01-26T12:21:37.643Z,16.80
2019-01-26T12:24:06.092Z,16.60
2019-01-26T12:26:34.347Z,15.97
2019-01-26T12:29:02.702Z,15.53
2019-01-26T12:31:31.341Z,14.40
2019-01-26T12:33:59.604Z,14.90
2019-01-26T12:36:27.884Z,17.27
2019-01-26T12:38:56.147Z,15.60
2019-01-26T12:41:24.434Z,14.03
2019-01-26T12:43:52.747Z,15.23
2019-01-26T12:46:21.055Z,18.13
2019-01-26T12:48:49.321Z,19.17
2019-01-26T12:51:17.571Z,13.27
2019-01-26T12:53:45.834Z,14.27
2019-01-26T12:56:14.109Z,13.60
2019-01-26T12:58:42.397Z,13.83
2019-01-26T13:01:10.660Z,16.23
2019-01-26T13:03:38.919Z,14.33
2019-01-26T13:06:07.250Z,13.00
2019-01-26T13:08:35.606Z,13.83
2019-01-26T13:11:07.337Z,14.87
2019-01-26T13:13:35.618Z,15.93
2019-01-26T13:16:04.287Z,14.00
2019-01-26T13:18:32.589Z,13.23
2019-01-26T13:21:00.868Z,12.70
2019-01-26T13:23:29.133Z,25.30
2019-01-26T13:25:57.409Z,14.40
2019-01-26T13:28:25.669Z,18.47
2019-01-26T13:30:53.931Z,17.40
2019-01-26T13:33:22.213Z,20.20
2019-01-26T13:35:50.459Z,20.37
2019-01-26T13:38:18.729Z,19.60
2019-01-26T13:40:47.433Z,15.17
2019-01-26T13:43:20.223Z,18.53
2019-01-26T13:45:51.693Z,21.73
2019-01-26T13:48:24.218Z,15.70
2019-01-26T13:50:52.695Z,13.67
2019-01-26T13:53:25.855Z,14.03
2019-01-26T13:55:54.849Z,14.70
2019-01-26T13:58:23.674Z,14.50
2019-01-26T14:00:53.770Z,13.10
2019-01-26T14:03:26.088Z,12.37
2019-01-26T14:05:54.387Z,13.83
2019-01-26T14:08:22.685Z,12.53
2019-01-26T14:10:51.079Z,11.77
2019-01-26T14:13:19.422Z,11.50
2019-01-26T14:15:55.396Z,12.50
2019-01-26T14:18:23.877Z,12.70
2019-01-26T14:20:58.488Z,14.07
2019-01-26T14:23:32.593Z,12.80
2019-01-26T14:26:01.033Z,13.07
2019-01-26T14:28:29.331Z,15.13
2019-01-26T14:30:58.641Z,15.07
2019-01-26T14:33:28.802Z,17.10
2019-01-26T14:35:57.568Z,16.37
2019-01-26T14:38:26.547Z,14.50
2019-01-26T14:40:55.121Z,13.47
2019-01-26T14:43:23.578Z,12.80
2019-01-26T14:45:52.053Z,11.97
2019-01-26T14:48:20.481Z,13.77
2019-01-26T14:50:48.861Z,12.00
2019-01-26T14:53:17.173Z,13.80
2019-01-26T14:55:45.985Z,12.33
2019-01-26T14:58:14.581Z,12.60
2019-01-26T15:00:42.981Z,12.20
2019-01-26T15:03:12.102Z,12.17
2019-01-26T15:05:41.178Z,13.10
2019-01-26T15:08:09.707Z,12.20
2019-01-26T15:10:40.977Z,12.67
2019-01-26T15:13:08.899Z,12.20
2019-01-26T15:15:37.269Z,12.27
2019-01-26T15:18:05.698Z,13.20
2019-01-26T15:20:39.833Z,13.10
2019-01-26T15:23:08.850Z,13.43
2019-01-26T15:25:38.940Z,13.07
2019-01-26T15:28:10.967Z,16.00
2019-01-26T15:30:40.635Z,23.57
2019-01-26T15:33:08.913Z,18.20
2019-01-26T15:35:44.599Z,24.87
2019-01-26T15:38:15.213Z,28.57
2019-01-26T15:40:43.524Z,29.93
2019-01-26T15:43:11.836Z,28.33
2019-01-26T15:45:44.175Z,24.17
2019-01-26T15:48:12.483Z,22.30
2019-01-26T15:50:42.009Z,19.97
2019-01-26T15:53:10.568Z,18.97
2019-01-26T15:55:39.209Z,15.27
2019-01-26T15:58:07.884Z,19.10
2019-01-26T16:00:41.173Z,18.70
2019-01-26T16:03:12.815Z,20.53
2019-01-26T16:05:41.156Z,17.90
2019-01-26T16:08:09.503Z,18.07
2019-01-26T16:10:38.016Z,20.80
2019-01-26T16:13:06.477Z,19.43
2019-01-26T16:15:38.835Z,22.17
2019-01-26T16:18:10.265Z,16.30
2019-01-26T16:20:38.738Z,13.10
2019-01-26T16:23:09.524Z,13.17
2019-01-26T16:25:40.400Z,12.10
2019-01-26T16:28:15.133Z,11.57
2019-01-26T16:30:42.131Z,11.80
2019-01-26T16:33:12.049Z,11.93
2019-01-26T16:35:40.366Z,15.13
2019-01-26T16:38:08.716Z,20.50
2019-01-26T16:40:37.359Z,14.07
2019-01-26T16:43:06.003Z,14.63
2019-01-26T16:45:37.677Z,13.53
2019-01-26T16:48:08.236Z,12.30
2019-01-26T16:50:36.612Z,13.00
2019-01-26T16:53:05.253Z,12.60
2019-01-26T16:55:33.829Z,13.53
2019-01-26T16:58:02.334Z,12.47
2019-01-26T17:00:38.981Z,13.17
2019-01-26T17:03:07.430Z,13.90
2019-01-26T17:05:37.584Z,12.87
2019-01-26T17:08:08.048Z,12.97
2019-01-26T17:10:36.715Z,15.00
2019-01-26T17:13:05.528Z,13.30
2019-01-26T17:15:43.194Z,13.90
2019-01-26T17:18:14.533Z,13.23
2019-01-26T17:20:44.681Z,13.63
2019-01-26T17:23:14.803Z,13.73
2019-01-26T17:25:46.517Z,13.70
2019-01-26T17:28:15.074Z,12.10
2019-01-26T17:30:43.643Z,12.67
2019-01-26T17:33:11.962Z,14.23
2019-01-26T17:35:43.385Z,11.97
2019-01-26T17:38:11.754Z,12.97
2019-01-26T17:40:41.909Z,13.60
2019-01-26T17:43:12.928Z,12.47
2019-01-26T17:45:44.252Z,12.93
2019-01-26T17:48:12.532Z,13.73
2019-01-26T17:50:42.629Z,14.10
2019-01-26T17:53:10.993Z,14.03
2019-01-26T17:55:39.414Z,14.40
2019-01-26T17:58:07.827Z,16.17
2019-01-26T18:00:46.476Z,18.47
2019-01-26T18:03:15.036Z,20.47
2019-01-26T18:05:43.395Z,19.47
2019-01-26T18:08:11.804Z,16.93
2019-01-26T18:10:42.745Z,16.57
2019-01-26T18:13:11.127Z,19.60
2019-01-26T18:15:42.432Z,22.37
2019-01-26T18:18:10.819Z,20.87
2019-01-26T18:20:39.109Z,19.40
2019-01-26T18:23:10.077Z,19.70
2019-01-26T18:25:42.002Z,17.73
2019-01-26T18:28:10.705Z,19.03
2019-01-26T18:30:41.520Z,18.33
2019-01-26T18:33:09.896Z,15.67
2019-01-26T18:35:42.729Z,16.80
2019-01-26T18:38:11.072Z,14.93
2019-01-26T18:40:39.430Z,16.07
2019-01-26T18:43:07.683Z,16.27
2019-01-26T18:45:37.574Z,15.63
2019-01-26T18:48:06.467Z,16.57
2019-01-26T18:50:40.783Z,16.50
2019-01-26T18:53:09.143Z,21.67
2019-01-26T18:55:37.554Z,21.23
2019-01-26T18:58:05.820Z,19.47
2019-01-26T19:00:40.450Z,17.90
2019-01-26T19:03:39.084Z,18.90
2019-01-26T19:06:07.498Z,20.07
2019-01-26T19:08:41.897Z,20.83
2019-01-26T19:11:13.032Z,18.37
2019-01-26T19:13:41.444Z,15.77
2019-01-26T19:16:14.010Z,16.17
2019-01-26T19:18:42.368Z,15.23
2019-01-26T19:21:10.745Z,16.43
2019-01-26T19:23:39.037Z,18.57
2019-01-26T19:26:07.335Z,15.10
2019-01-26T19:28:35.590Z,16.83
2019-01-26T19:31:03.932Z,15.53
2019-01-26T19:33:32.185Z,16.03
2019-01-26T19:36:00.477Z,14.23
2019-01-26T19:38:28.767Z,15.50
2019-01-26T19:40:57.021Z,18.83
2019-01-26T19:43:25.296Z,18.17
2019-01-26T19:45:53.553Z,16.20
2019-01-26T19:48:21.803Z,16.80
2019-01-26T19:50:50.106Z,16.40
2019-01-26T19:53:18.419Z,16.43
2019-01-26T19:55:46.692Z,15.60
2019-01-26T19:58:14.971Z,15.47
2019-01-26T20:00:43.227Z,15.63
2019-01-26T20:03:11.524Z,15.57
2019-01-26T20:05:39.806Z,15.13
2019-01-26T20:08:08.065Z,14.33
2019-01-26T20:10:36.366Z,15.13
2019-01-26T20:13:04.621Z,16.33
2019-01-26T20:15:32.889Z,15.37
2019-01-26T20:18:01.737Z,14.30
2019-01-26T20:20:39.289Z,14.73
2019-01-26T20:23:07.599Z,14.33
2019-01-26T20:25:35.951Z,14.50
2019-01-26T20:28:04.757Z,13.00
2019-01-26T20:30:33.691Z,13.50
2019-01-26T20:33:01.952Z,13.63
2019-01-26T20:35:31.391Z,13.63
2019-01-26T20:37:59.652Z,14.17
2019-01-26T20:40:27.908Z,14.43
2019-01-26T20:42:56.585Z,13.93
2019-01-26T20:45:27.902Z,13.27
2019-01-26T20:47:56.542Z,13.60
2019-01-26T20:50:24.853Z,13.57
2019-01-26T20:52:53.100Z,13.60
2019-01-26T20:55:21.435Z,12.93
2019-01-26T20:57:49.942Z,13.13
2019-01-26T21:00:27.655Z,11.97
2019-01-26T21:02:56.078Z,12.67
2019-01-26T21:05:24.962Z,12.17
2019-01-26T21:07:54.872Z,12.73
2019-01-26T21:10:30.045Z,13.10
2019-01-26T21:13:02.198Z,13.90
2019-01-26T21:15:30.597Z,15.63
2019-01-26T21:17:59.403Z,15.03
2019-01-26T21:20:28.068Z,15.47
2019-01-26T21:22:56.423Z,15.67
2019-01-26T21:25:24.767Z,13.73
2019-01-26T21:27:53.246Z,13.47
2019-01-26T21:30:24.579Z,13.60
2019-01-26T21:32:53.205Z,13.07
2019-01-26T21:35:21.792Z,13.93
2019-01-26T21:37:53.190Z,14.17
2019-01-26T21:40:23.525Z,12.90
2019-01-26T21:42:51.817Z,12.93
2019-01-26T21:45:20.882Z,13.60
2019-01-26T21:47:49.305Z,12.23
2019-01-26T21:50:27.466Z,11.13
2019-01-26T21:52:56.323Z,11.67
2019-01-26T21:55:24.643Z,11.77
2019-01-26T21:57:53.011Z,11.93
2019-01-26T22:00:23.748Z,12.27
2019-01-26T22:02:52.071Z,13.80
2019-01-26T22:05:23.670Z,15.17
2019-01-26T22:07:53.320Z,12.60
2019-01-26T22:10:26.692Z,12.30
2019-01-26T22:12:58.264Z,12.10
2019-01-26T22:15:26.704Z,12.07
2019-01-26T22:17:59.400Z,12.37
2019-01-26T22:20:28.549Z,11.43
2019-01-26T22:22:57.468Z,12.03
2019-01-26T22:25:29.127Z,11.60
2019-01-26T22:27:57.491Z,12.23
2019-01-26T22:30:31.822Z,11.47
2019-01-26T22:33:01.722Z,12.60
2019-01-26T22:35:30.065Z,12.10
2019-01-26T22:37:58.483Z,12.53
2019-01-26T22:40:29.363Z,11.63
2019-01-26T22:43:04.530Z,11.50
2019-01-26T22:45:34.691Z,12.17
2019-01-26T22:48:03.019Z,11.60
2019-01-26T22:50:38.958Z,11.47
2019-01-26T22:53:16.332Z,12.00
2019-01-26T22:55:45.082Z,12.63
2019-01-26T22:58:13.697Z,13.23
2019-01-26T23:01:02.309Z,12.10
2019-01-26T23:03:47.356Z,13.73
2019-01-26T23:06:27.760Z,14.43
2019-01-26T23:09:00.999Z,13.70
2019-01-26T23:11:35.383Z,13.00
2019-01-26T23:14:15.872Z,14.37
2019-01-26T23:16:47.671Z,13.87
2019-01-26T23:19:41.174Z,13.10
2019-01-26T23:22:36.017Z,14.10
2019-01-26T23:25:22.947Z,13.77
2019-01-26T23:28:00.329Z,13.63
2019-01-26T23:30:53.354Z,12.73
2019-01-26T23:33:21.869Z,14.17
2019-01-26T23:35:52.026Z,12.97
2019-01-26T23:38:23.734Z,14.03
2019-01-26T23:40:56.899Z,14.67
2019-01-26T23:43:25.522Z,15.67
2019-01-26T23:45:53.952Z,15.93
2019-01-26T23:48:22.265Z,13.73
2019-01-26T23:50:55.208Z,13.77
2019-01-26T23:53:27.212Z,16.07
2019-01-26T23:56:01.628Z,13.10
